createdAt,value
2023-03-29T00:00:22.153Z,5.44
2023-03-29T00:01:35.302Z,5.44
2023-03-29T00:02:23.184Z,5.44
2023-03-29T00:03:22.133Z,5.43
2023-03-29T00:04:22.141Z,5.43
2023-03-29T00:05:22.067Z,5.41
2023-03-29T00:06:22.087Z,5.39
2023-03-29T00:07:22.067Z,5.39
2023-03-29T00:08:22.018Z,5.41
2023-03-29T00:09:22.021Z,5.39
2023-03-29T00:10:22.008Z,5.38
2023-03-29T00:11:22.036Z,5.39
2023-03-29T00:12:22.018Z,5.39
2023-03-29T00:13:21.959Z,5.36
2023-03-29T00:14:21.996Z,5.35
2023-03-29T00:15:21.959Z,5.35
2023-03-29T00:16:21.992Z,5.33
2023-03-29T00:17:21.919Z,5.33
2023-03-29T00:18:21.913Z,5.33
2023-03-29T00:19:21.930Z,5.32
2023-03-29T00:20:21.896Z,5.33
2023-03-29T00:21:21.886Z,5.32
2023-03-29T00:22:21.920Z,5.32
2023-03-29T00:23:21.848Z,5.32
2023-03-29T00:24:21.861Z,5.32
2023-03-29T00:25:21.845Z,5.30
2023-03-29T00:26:21.837Z,5.32
2023-03-29T00:27:21.813Z,5.30
2023-03-29T00:28:21.818Z,5.28
2023-03-29T00:29:21.788Z,5.29
2023-03-29T00:30:21.812Z,5.30
2023-03-29T00:31:21.818Z,5.28
2023-03-29T00:32:21.885Z,5.26
2023-03-29T00:33:21.745Z,5.26
2023-03-29T00:34:21.761Z,5.25
2023-03-29T00:35:21.779Z,5.26
2023-03-29T00:36:22.001Z,5.26
2023-03-29T00:37:21.709Z,5.26
2023-03-29T00:38:21.685Z,5.25
2023-03-29T00:39:21.661Z,5.25
2023-03-29T00:40:21.677Z,5.26
2023-03-29T00:41:21.697Z,5.25
2023-03-29T00:42:21.651Z,5.23
2023-03-29T00:43:21.645Z,5.25
2023-03-29T00:44:21.620Z,5.21
2023-03-29T00:45:21.642Z,5.20
2023-03-29T00:46:21.654Z,5.18
2023-03-29T00:47:21.604Z,5.18
2023-03-29T00:48:21.595Z,5.18
2023-03-29T00:49:21.562Z,5.18
2023-03-29T00:50:21.590Z,5.18
2023-03-29T00:51:21.530Z,5.18
2023-03-29T00:52:21.534Z,5.18
2023-03-29T00:53:21.526Z,5.18
2023-03-29T00:54:21.508Z,5.18
2023-03-29T00:55:21.489Z,5.18
2023-03-29T00:56:21.501Z,5.17
2023-03-29T00:57:21.556Z,5.17
2023-03-29T00:58:21.468Z,5.17
2023-03-29T00:59:21.438Z,5.18
2023-03-29T01:00:21.437Z,5.17
2023-03-29T01:01:21.479Z,5.17
2023-03-29T01:02:21.446Z,5.18
2023-03-29T01:03:21.645Z,5.15
2023-03-29T01:04:21.423Z,5.18
2023-03-29T01:05:21.382Z,5.20
2023-03-29T01:06:21.371Z,5.18
2023-03-29T01:07:21.532Z,5.17
2023-03-29T01:08:21.385Z,5.17
2023-03-29T01:09:21.416Z,5.18
2023-03-29T01:10:21.340Z,5.15
2023-03-29T01:11:21.332Z,5.17
2023-03-29T01:12:21.300Z,5.15
2023-03-29T01:13:21.400Z,5.17
2023-03-29T01:14:21.335Z,5.17
2023-03-29T01:15:22.517Z,5.17
2023-03-29T01:16:21.388Z,5.17
2023-03-29T01:17:21.250Z,5.15
2023-03-29T01:18:21.249Z,5.17
2023-03-29T01:19:21.291Z,5.18
2023-03-29T01:20:21.237Z,5.20
2023-03-29T01:21:21.191Z,5.20
2023-03-29T01:22:21.190Z,5.18
2023-03-29T01:23:21.196Z,5.18
2023-03-29T01:24:21.187Z,5.20
2023-03-29T01:25:21.385Z,5.18
2023-03-29T01:26:21.174Z,5.20
2023-03-29T01:27:21.163Z,5.21
2023-03-29T01:28:21.140Z,5.20
2023-03-29T01:29:21.155Z,5.20
2023-03-29T01:30:21.129Z,5.18
2023-03-29T01:31:21.157Z,5.17
2023-03-29T01:32:21.115Z,5.18
2023-03-29T01:33:21.081Z,5.17
2023-03-29T01:34:21.071Z,5.17
2023-03-29T01:35:21.048Z,5.17
2023-03-29T01:36:21.069Z,5.18
2023-03-29T01:37:21.019Z,5.17
2023-03-29T01:38:21.046Z,5.17
2023-03-29T01:39:20.999Z,5.17
2023-03-29T01:40:21.016Z,5.17
2023-03-29T01:41:20.992Z,5.14
2023-03-29T01:42:20.997Z,5.15
2023-03-29T01:43:20.936Z,5.17
2023-03-29T01:44:20.981Z,5.14
2023-03-29T01:45:20.932Z,5.12
2023-03-29T01:46:20.976Z,5.12
2023-03-29T01:47:20.957Z,5.11
2023-03-29T01:48:20.932Z,5.10
2023-03-29T01:49:20.928Z,5.10
2023-03-29T01:50:20.889Z,5.10
2023-03-29T01:51:20.879Z,5.10
2023-03-29T01:52:20.869Z,5.10
2023-03-29T01:53:20.860Z,5.08
2023-03-29T01:54:20.841Z,5.10
2023-03-29T01:55:20.832Z,5.11
2023-03-29T01:56:20.815Z,5.11
2023-03-29T01:57:20.812Z,5.11
2023-03-29T01:58:20.802Z,5.11
2023-03-29T01:59:20.760Z,5.12
2023-03-29T02:00:20.782Z,5.11
2023-03-29T02:01:20.808Z,5.12
2023-03-29T02:02:20.775Z,5.14
2023-03-29T02:03:20.817Z,5.12
2023-03-29T02:04:20.745Z,5.11
2023-03-29T02:05:20.701Z,5.11
2023-03-29T02:06:20.729Z,5.11
2023-03-29T02:07:20.777Z,5.11
2023-03-29T02:08:20.682Z,5.14
2023-03-29T02:09:20.670Z,5.12
2023-03-29T02:10:20.700Z,5.14
2023-03-29T02:11:20.636Z,5.11
2023-03-29T02:12:20.657Z,5.14
2023-03-29T02:13:20.624Z,5.14
2023-03-29T02:14:20.631Z,5.12
2023-03-29T02:15:20.599Z,5.12
2023-03-29T02:16:20.659Z,5.12
2023-03-29T02:17:20.722Z,5.14
2023-03-29T02:18:20.581Z,5.17
2023-03-29T02:19:20.635Z,5.15
2023-03-29T02:20:20.592Z,5.17
2023-03-29T02:21:20.578Z,5.17
2023-03-29T02:22:20.537Z,5.20
2023-03-29T02:23:20.603Z,5.21
2023-03-29T02:24:20.503Z,5.21
2023-03-29T02:25:20.959Z,5.23
2023-03-29T02:26:20.469Z,5.25
2023-03-29T02:27:20.512Z,5.26
2023-03-29T02:28:20.451Z,5.25
2023-03-29T02:29:20.443Z,5.26
2023-03-29T02:30:20.480Z,5.26
2023-03-29T02:31:20.433Z,5.29
2023-03-29T02:32:20.439Z,5.28
2023-03-29T02:33:20.408Z,5.28
2023-03-29T02:34:20.392Z,5.32
2023-03-29T02:35:20.465Z,5.33
2023-03-29T02:36:20.352Z,5.33
2023-03-29T02:37:20.366Z,5.35
2023-03-29T02:38:20.332Z,5.33
2023-03-29T02:39:20.364Z,5.33
2023-03-29T02:40:20.324Z,5.35
2023-03-29T02:41:20.326Z,5.35
2023-03-29T02:42:20.328Z,5.36
2023-03-29T02:43:20.305Z,5.35
2023-03-29T02:44:20.293Z,5.35
2023-03-29T02:45:20.328Z,5.36
2023-03-29T02:46:20.294Z,5.36
2023-03-29T02:47:20.242Z,5.36
2023-03-29T02:48:20.281Z,5.38
2023-03-29T02:49:20.219Z,5.38
2023-03-29T02:50:20.224Z,5.38
2023-03-29T02:51:20.453Z,5.39
2023-03-29T02:52:20.171Z,5.38
2023-03-29T02:53:20.182Z,5.38
2023-03-29T02:54:20.152Z,5.39
2023-03-29T02:55:20.214Z,5.39
2023-03-29T02:56:20.120Z,5.39
2023-03-29T02:57:20.167Z,5.39
2023-03-29T02:58:20.133Z,5.39
2023-03-29T02:59:20.113Z,5.38
2023-03-29T03:00:20.269Z,5.41
2023-03-29T03:01:20.106Z,5.39
2023-03-29T03:02:20.118Z,5.39
2023-03-29T03:03:20.168Z,5.39
2023-03-29T03:04:20.042Z,5.41
2023-03-29T03:05:20.094Z,5.41
2023-03-29T03:06:20.029Z,5.43
2023-03-29T03:07:20.028Z,5.43
2023-03-29T03:08:19.992Z,5.43
2023-03-29T03:09:20.045Z,5.43
2023-03-29T03:10:19.963Z,5.43
2023-03-29T03:11:19.988Z,5.44
2023-03-29T03:12:19.939Z,5.46
2023-03-29T03:13:19.942Z,5.46
2023-03-29T03:14:19.935Z,5.47
2023-03-29T03:15:19.926Z,5.47
2023-03-29T03:16:19.931Z,5.48
2023-03-29T03:17:19.904Z,5.47
2023-03-29T03:18:19.879Z,5.48
2023-03-29T03:19:19.888Z,5.51
2023-03-29T03:20:19.915Z,5.53
2023-03-29T03:21:19.849Z,5.51
2023-03-29T03:22:19.828Z,5.53
2023-03-29T03:23:19.875Z,5.53
2023-03-29T03:24:19.836Z,5.54
2023-03-29T03:25:19.828Z,5.54
2023-03-29T03:26:19.790Z,5.54
2023-03-29T03:27:19.792Z,5.56
2023-03-29T03:28:19.761Z,5.56
2023-03-29T03:29:19.777Z,5.56
2023-03-29T03:30:19.729Z,5.56
2023-03-29T03:31:19.840Z,5.54
2023-03-29T03:32:19.715Z,5.56
2023-03-29T03:33:19.725Z,5.59
2023-03-29T03:34:19.684Z,5.59
2023-03-29T03:35:19.691Z,5.61
2023-03-29T03:36:19.686Z,5.61
2023-03-29T03:37:19.700Z,5.61
2023-03-29T03:38:19.656Z,5.64
2023-03-29T03:39:19.652Z,5.62
2023-03-29T03:40:19.713Z,5.65
2023-03-29T03:41:19.639Z,5.64
2023-03-29T03:42:19.613Z,5.62
2023-03-29T03:43:19.614Z,5.64
2023-03-29T03:44:19.588Z,5.65
2023-03-29T03:45:19.573Z,5.65
2023-03-29T03:46:19.688Z,5.65
2023-03-29T03:47:19.569Z,5.65
2023-03-29T03:48:19.547Z,5.66
2023-03-29T03:49:19.534Z,5.66
2023-03-29T03:50:19.551Z,5.66
2023-03-29T03:51:19.515Z,5.69
2023-03-29T03:52:19.523Z,5.72
2023-03-29T03:53:19.557Z,5.72
2023-03-29T03:54:19.795Z,5.75
2023-03-29T03:55:19.463Z,5.79
2023-03-29T03:56:19.471Z,5.76
2023-03-29T03:57:19.493Z,5.80
2023-03-29T03:58:19.500Z,5.80
2023-03-29T03:59:19.457Z,5.80
2023-03-29T04:00:19.556Z,5.82
2023-03-29T04:01:19.395Z,5.82
2023-03-29T04:02:19.423Z,5.84
2023-03-29T04:03:19.536Z,5.83
2023-03-29T04:04:19.485Z,5.83
2023-03-29T04:05:19.343Z,5.84
2023-03-29T04:06:19.371Z,5.84
2023-03-29T04:07:19.339Z,5.86
2023-03-29T04:08:19.334Z,5.86
2023-03-29T04:09:19.307Z,5.84
2023-03-29T04:10:19.288Z,5.89
2023-03-29T04:11:19.328Z,5.90
2023-03-29T04:12:19.254Z,5.90
2023-03-29T04:13:19.300Z,5.91
2023-03-29T04:14:19.723Z,5.93
2023-03-29T04:15:19.256Z,5.94
2023-03-29T04:16:19.282Z,5.97
2023-03-29T04:17:19.235Z,5.98
2023-03-29T04:18:19.319Z,5.98
2023-03-29T04:19:19.197Z,5.99
2023-03-29T04:20:19.201Z,6.02
2023-03-29T04:21:21.282Z,6.04
2023-03-29T04:22:19.595Z,6.05
2023-03-29T04:23:19.151Z,6.07
2023-03-29T04:24:19.174Z,6.09
2023-03-29T04:25:19.148Z,6.08
2023-03-29T04:26:19.115Z,6.11
2023-03-29T04:27:19.134Z,6.11
2023-03-29T04:28:19.076Z,6.12
2023-03-29T04:29:19.073Z,6.14
2023-03-29T04:30:19.072Z,6.16
2023-03-29T04:31:19.068Z,6.16
2023-03-29T04:32:19.103Z,6.19
2023-03-29T04:33:19.221Z,6.16
2023-03-29T04:34:19.098Z,6.19
2023-03-29T04:35:19.049Z,6.19
2023-03-29T04:36:19.116Z,6.20
2023-03-29T04:37:18.998Z,6.24
2023-03-29T04:38:19.005Z,6.24
2023-03-29T04:39:18.977Z,6.26
2023-03-29T04:40:18.941Z,6.26
2023-03-29T04:41:18.957Z,6.27
2023-03-29T04:42:18.947Z,6.27
2023-03-29T04:43:18.954Z,6.27
2023-03-29T04:44:18.909Z,6.26
2023-03-29T04:45:18.984Z,6.27
2023-03-29T04:46:18.955Z,6.26
2023-03-29T04:47:18.928Z,6.26
2023-03-29T04:48:18.862Z,6.26
2023-03-29T04:49:18.912Z,6.27
2023-03-29T04:50:19.738Z,6.28
2023-03-29T04:51:18.846Z,6.27
2023-03-29T04:52:18.813Z,6.27
2023-03-29T04:53:18.825Z,6.30
2023-03-29T04:54:18.848Z,6.28
2023-03-29T04:55:18.811Z,6.28
2023-03-29T04:56:18.789Z,6.28
2023-03-29T04:57:18.863Z,6.28
2023-03-29T04:58:21.394Z,6.30
2023-03-29T04:59:18.766Z,6.28
2023-03-29T05:00:18.734Z,6.30
2023-03-29T05:01:18.749Z,6.30
2023-03-29T05:02:18.698Z,6.30
2023-03-29T05:03:18.726Z,6.30
2023-03-29T05:04:18.709Z,6.30
2023-03-29T05:05:18.695Z,6.31
2023-03-29T05:06:18.669Z,6.36
2023-03-29T05:07:18.674Z,6.39
2023-03-29T05:08:18.678Z,6.41
2023-03-29T05:09:18.642Z,6.42
2023-03-29T05:10:18.628Z,6.44
2023-03-29T05:11:18.657Z,6.44
2023-03-29T05:12:18.606Z,6.44
2023-03-29T05:13:18.616Z,6.44
2023-03-29T05:14:18.585Z,6.45
2023-03-29T05:15:18.617Z,6.46
2023-03-29T05:16:18.586Z,6.48
2023-03-29T05:17:18.571Z,6.48
2023-03-29T05:18:18.528Z,6.51
2023-03-29T05:19:18.589Z,6.52
2023-03-29T05:20:18.521Z,6.52
2023-03-29T05:21:18.506Z,6.52
2023-03-29T05:22:18.481Z,6.54
2023-03-29T05:23:18.523Z,6.56
2023-03-29T05:24:18.474Z,6.54
2023-03-29T05:25:18.464Z,6.56
2023-03-29T05:26:18.429Z,6.56
2023-03-29T05:27:18.460Z,6.56
2023-03-29T05:28:18.632Z,6.56
2023-03-29T05:29:18.400Z,6.56
2023-03-29T05:30:18.449Z,6.57
2023-03-29T05:31:18.442Z,6.59
2023-03-29T05:32:18.370Z,6.59
2023-03-29T05:33:18.394Z,6.60
2023-03-29T05:34:18.349Z,6.60
2023-03-29T05:35:18.359Z,6.59
2023-03-29T05:36:18.379Z,6.59
2023-03-29T05:37:18.325Z,6.60
2023-03-29T05:38:18.336Z,6.62
2023-03-29T05:39:18.309Z,6.60
2023-03-29T05:40:18.333Z,6.60
2023-03-29T05:41:18.273Z,6.62
2023-03-29T05:42:18.256Z,6.62
2023-03-29T05:43:18.251Z,6.60
2023-03-29T05:44:18.241Z,6.62
2023-03-29T05:45:18.253Z,6.62
2023-03-29T05:46:18.260Z,6.62
2023-03-29T05:47:18.200Z,6.60
2023-03-29T05:48:18.183Z,6.59
2023-03-29T05:49:18.197Z,6.59
2023-03-29T05:50:18.170Z,6.62
2023-03-29T05:51:18.313Z,6.59
2023-03-29T05:52:18.150Z,6.60
2023-03-29T05:53:18.140Z,6.62
2023-03-29T05:54:18.131Z,6.60
2023-03-29T05:55:18.109Z,6.60
2023-03-29T05:56:18.117Z,6.60
2023-03-29T05:57:18.268Z,6.60
2023-03-29T05:58:18.092Z,6.60
2023-03-29T05:59:18.170Z,6.60
2023-03-29T06:00:18.065Z,6.62
2023-03-29T06:01:18.126Z,6.62
2023-03-29T06:02:18.142Z,6.63
2023-03-29T06:03:21.075Z,6.64
2023-03-29T06:04:18.241Z,6.63
2023-03-29T06:05:18.014Z,6.63
2023-03-29T06:06:18.026Z,6.63
2023-03-29T06:07:17.988Z,6.66
2023-03-29T06:08:17.987Z,6.64
2023-03-29T06:09:17.956Z,6.64
2023-03-29T06:10:18.016Z,6.64
2023-03-29T06:11:17.966Z,6.66
2023-03-29T06:12:17.922Z,6.66
2023-03-29T06:13:17.949Z,6.67
2023-03-29T06:14:17.913Z,6.66
2023-03-29T06:15:17.890Z,6.67
2023-03-29T06:16:17.928Z,6.69
2023-03-29T06:17:17.922Z,6.69
2023-03-29T06:18:17.869Z,6.70
2023-03-29T06:19:17.881Z,6.72
2023-03-29T06:20:17.841Z,6.72
2023-03-29T06:21:17.850Z,6.75
2023-03-29T06:22:17.809Z,6.75
2023-03-29T06:23:18.544Z,6.77
2023-03-29T06:24:17.785Z,6.77
2023-03-29T06:25:17.777Z,6.78
2023-03-29T06:26:17.764Z,6.78
2023-03-29T06:27:17.822Z,6.79
2023-03-29T06:28:17.750Z,6.81
2023-03-29T06:29:17.738Z,6.81
2023-03-29T06:30:17.738Z,6.81
2023-03-29T06:31:17.781Z,6.81
2023-03-29T06:32:17.731Z,6.78
2023-03-29T06:33:17.724Z,6.78
2023-03-29T06:34:17.703Z,6.77
2023-03-29T06:35:17.669Z,6.75
2023-03-29T06:36:17.698Z,6.77
2023-03-29T06:37:17.641Z,6.77
2023-03-29T06:38:17.665Z,6.78
2023-03-29T06:39:17.618Z,6.78
2023-03-29T06:40:17.601Z,6.78
2023-03-29T06:41:17.608Z,6.77
2023-03-29T06:42:21.659Z,6.75
2023-03-29T06:43:17.613Z,6.77
2023-03-29T06:44:17.576Z,6.79
2023-03-29T06:45:17.554Z,6.78
2023-03-29T06:46:17.574Z,6.78
2023-03-29T06:47:17.534Z,6.79
2023-03-29T06:48:17.565Z,6.77
2023-03-29T06:49:17.504Z,6.78
2023-03-29T06:50:17.538Z,6.79
2023-03-29T06:51:17.489Z,6.82
2023-03-29T06:52:17.513Z,6.84
2023-03-29T06:53:17.481Z,6.87
2023-03-29T06:54:17.489Z,6.88
2023-03-29T06:55:17.434Z,6.89
2023-03-29T06:56:17.473Z,6.89
2023-03-29T06:57:17.494Z,6.92
2023-03-29T06:58:17.415Z,6.93
2023-03-29T06:59:17.421Z,6.92
2023-03-29T07:00:17.401Z,6.93
2023-03-29T07:01:17.375Z,6.92
2023-03-29T07:02:17.360Z,6.96
2023-03-29T07:03:17.988Z,6.93
2023-03-29T07:04:17.472Z,6.95
2023-03-29T07:05:17.328Z,6.95
2023-03-29T07:06:17.364Z,6.93
2023-03-29T07:07:17.305Z,6.96
2023-03-29T07:08:17.372Z,6.95
2023-03-29T07:09:19.427Z,6.95
2023-03-29T07:10:17.271Z,6.95
2023-03-29T07:11:17.335Z,6.96
2023-03-29T07:12:17.245Z,7.00
2023-03-29T07:13:17.238Z,7.05
2023-03-29T07:14:17.351Z,7.07
2023-03-29T07:15:17.212Z,7.13
2023-03-29T07:16:17.266Z,7.15
2023-03-29T07:17:17.450Z,7.18
2023-03-29T07:18:17.215Z,7.18
2023-03-29T07:19:17.164Z,7.23
2023-03-29T07:20:17.179Z,7.23
2023-03-29T07:21:17.133Z,7.23
2023-03-29T07:22:17.123Z,7.23
2023-03-29T07:23:17.145Z,7.24
2023-03-29T07:24:17.146Z,7.25
2023-03-29T07:25:17.091Z,7.25
2023-03-29T07:26:29.043Z,7.25
2023-03-29T07:27:18.080Z,7.25
2023-03-29T07:28:17.094Z,7.25
2023-03-29T07:29:17.303Z,7.28
2023-03-29T07:30:17.066Z,7.28
2023-03-29T07:31:17.026Z,7.31
2023-03-29T07:32:17.070Z,7.29
2023-03-29T07:33:17.104Z,7.33
2023-03-29T07:34:17.085Z,7.33
2023-03-29T07:35:16.983Z,7.39
2023-03-29T07:36:17.003Z,7.42
2023-03-29T07:37:16.988Z,7.43
2023-03-29T07:38:16.955Z,7.45
2023-03-29T07:39:16.934Z,7.48
2023-03-29T07:40:16.948Z,7.50
2023-03-29T07:41:16.924Z,7.51
2023-03-29T07:42:16.926Z,7.53
2023-03-29T07:43:17.256Z,7.53
2023-03-29T07:44:16.914Z,7.57
2023-03-29T07:45:16.941Z,7.57
2023-03-29T07:46:16.924Z,7.58
2023-03-29T07:47:16.857Z,7.61
2023-03-29T07:48:16.863Z,7.66
2023-03-29T07:49:16.825Z,7.69
2023-03-29T07:50:16.886Z,7.73
2023-03-29T07:51:16.799Z,7.79
2023-03-29T07:52:16.795Z,7.83
2023-03-29T07:53:16.772Z,7.87
2023-03-29T07:54:16.813Z,7.93
2023-03-29T07:55:16.782Z,7.94
2023-03-29T07:56:16.808Z,7.94
2023-03-29T07:57:16.758Z,7.97
2023-03-29T07:58:16.873Z,7.98
2023-03-29T07:59:16.734Z,8.00
2023-03-29T08:00:17.089Z,8.01
2023-03-29T08:01:19.356Z,8.00
2023-03-29T08:02:16.754Z,8.00
2023-03-29T08:03:16.762Z,8.01
2023-03-29T08:04:16.732Z,8.01
2023-03-29T08:05:23.198Z,8.06
2023-03-29T08:06:17.673Z,8.08
2023-03-29T08:07:18.878Z,8.12
2023-03-29T08:08:16.642Z,8.12
2023-03-29T08:09:16.583Z,8.16
2023-03-29T08:10:16.604Z,8.19
2023-03-29T08:11:16.639Z,8.20
2023-03-29T08:12:16.590Z,8.23
2023-03-29T08:13:16.562Z,8.19
2023-03-29T08:14:16.550Z,8.18
2023-03-29T08:15:16.564Z,8.15
2023-03-29T08:16:16.585Z,8.16
2023-03-29T08:17:16.510Z,8.18
2023-03-29T08:18:16.511Z,8.20
2023-03-29T08:19:16.519Z,8.23
2023-03-29T08:20:16.509Z,8.24
2023-03-29T08:21:16.464Z,8.20
2023-03-29T08:22:16.473Z,8.23
2023-03-29T08:23:16.472Z,8.23
2023-03-29T08:24:17.587Z,8.27
2023-03-29T08:25:16.421Z,8.30
2023-03-29T08:26:16.417Z,8.33
2023-03-29T08:27:16.391Z,8.34
2023-03-29T08:28:16.395Z,8.38
2023-03-29T08:29:16.367Z,8.42
2023-03-29T08:30:16.448Z,8.46
2023-03-29T08:31:16.355Z,8.51
2023-03-29T08:32:16.340Z,8.52
2023-03-29T08:33:16.348Z,8.55
2023-03-29T08:34:16.338Z,8.60
2023-03-29T08:35:16.334Z,8.61
2023-03-29T08:36:16.334Z,8.64
2023-03-29T08:37:16.306Z,8.64
2023-03-29T08:38:16.310Z,8.64
2023-03-29T08:39:17.288Z,8.64
2023-03-29T08:40:16.273Z,8.61
2023-03-29T08:41:16.248Z,8.61
2023-03-29T08:42:16.255Z,8.63
2023-03-29T08:43:16.272Z,8.66
2023-03-29T08:44:16.215Z,8.64
2023-03-29T08:45:16.208Z,8.69
2023-03-29T08:46:16.236Z,8.69
2023-03-29T08:47:16.174Z,8.71
2023-03-29T08:48:16.190Z,8.79
2023-03-29T08:49:16.185Z,8.84
2023-03-29T08:50:16.154Z,8.87
2023-03-29T08:51:16.149Z,8.91
2023-03-29T08:52:16.360Z,8.94
2023-03-29T08:53:16.141Z,8.99
2023-03-29T08:54:16.122Z,9.00
2023-03-29T08:55:16.070Z,9.02
2023-03-29T08:56:16.112Z,9.04
2023-03-29T08:57:16.133Z,9.08
2023-03-29T08:58:16.116Z,9.11
2023-03-29T08:59:16.053Z,9.16
2023-03-29T09:00:16.021Z,9.22
2023-03-29T09:01:16.090Z,9.22
2023-03-29T09:02:16.104Z,9.26
2023-03-29T09:03:16.168Z,9.32
2023-03-29T09:04:16.057Z,9.34
2023-03-29T09:05:15.972Z,9.37
2023-03-29T09:06:15.965Z,9.40
2023-03-29T09:07:15.929Z,9.43
2023-03-29T09:08:15.953Z,9.43
2023-03-29T09:09:15.936Z,9.43
2023-03-29T09:10:16.000Z,9.41
2023-03-29T09:11:15.920Z,9.44
2023-03-29T09:12:15.910Z,9.44
2023-03-29T09:13:15.930Z,9.43
2023-03-29T09:14:15.882Z,9.47
2023-03-29T09:15:15.861Z,9.47
2023-03-29T09:16:15.933Z,9.46
2023-03-29T09:17:15.865Z,9.47
2023-03-29T09:18:15.908Z,9.51
2023-03-29T09:19:15.814Z,9.58
2023-03-29T09:20:15.858Z,9.62
2023-03-29T09:21:15.828Z,9.68
2023-03-29T09:22:15.785Z,9.77
2023-03-29T09:23:15.801Z,9.82
2023-03-29T09:24:15.801Z,9.86
2023-03-29T09:25:15.762Z,9.92
2023-03-29T09:26:15.763Z,9.95
2023-03-29T09:27:15.738Z,10.02
2023-03-29T09:28:15.708Z,10.04
2023-03-29T09:29:15.694Z,10.05
2023-03-29T09:30:15.711Z,10.07
2023-03-29T09:31:15.758Z,10.09
2023-03-29T09:32:15.680Z,10.07
2023-03-29T09:33:15.641Z,10.07
2023-03-29T09:34:15.921Z,10.10
2023-03-29T09:35:15.643Z,10.12
2023-03-29T09:36:15.647Z,10.10
2023-03-29T09:37:15.619Z,10.05
2023-03-29T09:38:15.606Z,10.05
2023-03-29T09:39:15.601Z,10.05
2023-03-29T09:40:15.611Z,10.01
2023-03-29T09:41:15.582Z,9.99
2023-03-29T09:42:15.555Z,10.01
2023-03-29T09:43:15.531Z,10.07
2023-03-29T09:45:16.570Z,10.19
2023-03-29T09:46:15.571Z,10.25
2023-03-29T09:47:15.510Z,10.23
2023-03-29T09:48:15.488Z,10.30
2023-03-29T09:49:17.241Z,10.34
2023-03-29T09:50:29.483Z,10.31
2023-03-29T09:51:16.443Z,10.25
2023-03-29T09:52:15.451Z,10.20
2023-03-29T09:53:15.448Z,10.19
2023-03-29T09:54:15.413Z,10.19
2023-03-29T09:55:15.401Z,10.22
2023-03-29T09:56:15.414Z,10.23
2023-03-29T09:57:15.433Z,10.25
2023-03-29T09:58:15.439Z,10.22
2023-03-29T09:59:15.424Z,10.17
2023-03-29T10:00:15.344Z,10.15
2023-03-29T10:01:15.471Z,10.12
2023-03-29T10:02:15.328Z,10.05
2023-03-29T10:03:15.419Z,10.05
2023-03-29T10:04:15.321Z,10.01
2023-03-29T10:05:15.269Z,10.01
2023-03-29T10:06:15.274Z,10.02
2023-03-29T10:07:15.294Z,9.99
2023-03-29T10:08:16.156Z,9.95
2023-03-29T10:09:15.246Z,9.95
2023-03-29T10:10:15.309Z,9.95
2023-03-29T10:11:15.220Z,9.98
2023-03-29T10:12:15.212Z,9.99
2023-03-29T10:13:15.203Z,10.02
2023-03-29T10:14:15.192Z,10.05
2023-03-29T10:15:26.601Z,10.10
2023-03-29T10:16:16.218Z,10.20
2023-03-29T10:17:15.144Z,10.30
2023-03-29T10:18:15.145Z,10.38
2023-03-29T10:19:15.158Z,10.44
2023-03-29T10:20:15.218Z,10.53
2023-03-29T10:21:15.128Z,10.59
2023-03-29T10:22:15.096Z,10.61
2023-03-29T10:23:15.108Z,10.67
2023-03-29T10:24:15.093Z,10.69
2023-03-29T10:25:15.048Z,10.67
2023-03-29T10:26:15.061Z,10.63
2023-03-29T10:27:15.053Z,10.69
2023-03-29T10:28:15.076Z,10.71
2023-03-29T10:29:15.027Z,10.69
2023-03-29T10:30:15.016Z,10.64
2023-03-29T10:31:17.308Z,10.61
2023-03-29T10:32:14.989Z,10.56
2023-03-29T10:33:15.021Z,10.49
2023-03-29T10:34:15.023Z,10.48
2023-03-29T10:35:14.968Z,10.46
2023-03-29T10:36:14.969Z,10.49
2023-03-29T10:37:14.917Z,10.46
2023-03-29T10:38:15.014Z,10.38
2023-03-29T10:39:14.949Z,10.30
2023-03-29T10:40:14.905Z,10.20
2023-03-29T10:41:15.135Z,10.12
2023-03-29T10:42:14.877Z,10.01
2023-03-29T10:43:14.850Z,9.92
2023-03-29T10:44:14.869Z,9.95
2023-03-29T10:45:14.878Z,9.98
2023-03-29T10:46:14.868Z,10.02
2023-03-29T10:47:14.829Z,10.04
2023-03-29T10:48:14.843Z,10.04
2023-03-29T10:49:14.795Z,9.99
2023-03-29T10:50:14.777Z,10.05
2023-03-29T10:51:14.815Z,10.07
2023-03-29T10:52:14.762Z,10.04
2023-03-29T10:53:14.754Z,10.05
2023-03-29T10:54:14.810Z,10.09
2023-03-29T10:55:14.729Z,10.12
2023-03-29T10:56:14.744Z,10.16
2023-03-29T10:57:14.780Z,10.20
2023-03-29T10:58:14.704Z,10.30
2023-03-29T10:59:14.724Z,10.31
2023-03-29T11:00:14.676Z,10.31
2023-03-29T11:01:14.732Z,10.33
2023-03-29T11:02:14.693Z,10.34
2023-03-29T11:03:16.229Z,10.34
2023-03-29T11:04:14.632Z,10.33
2023-03-29T11:05:14.618Z,10.35
2023-03-29T11:06:14.592Z,10.34
2023-03-29T11:07:14.686Z,10.31
2023-03-29T11:08:14.585Z,10.26
2023-03-29T11:09:14.584Z,10.23
2023-03-29T11:10:14.594Z,10.23
2023-03-29T11:11:14.548Z,10.20
2023-03-29T11:12:16.378Z,10.17
2023-03-29T11:13:14.540Z,10.09
2023-03-29T11:14:14.504Z,10.02
2023-03-29T11:15:14.560Z,9.97
2023-03-29T11:16:14.564Z,9.91
2023-03-29T11:17:14.482Z,9.86
2023-03-29T11:18:14.455Z,9.79
2023-03-29T11:19:14.460Z,9.76
2023-03-29T11:20:14.473Z,9.76
2023-03-29T11:21:14.440Z,9.73
2023-03-29T11:22:14.416Z,9.73
2023-03-29T11:23:14.451Z,9.73
2023-03-29T11:24:14.406Z,9.69
2023-03-29T11:25:14.379Z,9.65
2023-03-29T11:26:14.370Z,9.69
2023-03-29T11:27:14.369Z,9.72
2023-03-29T11:28:14.420Z,9.68
2023-03-29T11:29:14.343Z,9.68
2023-03-29T11:30:14.381Z,9.69
2023-03-29T11:31:14.457Z,9.72
2023-03-29T11:32:14.298Z,9.73
2023-03-29T11:33:14.292Z,9.74
2023-03-29T11:34:14.319Z,9.74
2023-03-29T11:35:14.271Z,9.74
2023-03-29T11:36:14.316Z,9.72
2023-03-29T11:37:14.257Z,9.69
2023-03-29T11:38:14.237Z,9.72
2023-03-29T11:39:14.239Z,9.72
2023-03-29T11:40:14.231Z,9.72
2023-03-29T11:41:14.392Z,9.74
2023-03-29T11:42:14.177Z,9.77
2023-03-29T11:43:14.187Z,9.82
2023-03-29T11:44:14.207Z,9.84
2023-03-29T11:45:14.228Z,9.89
2023-03-29T11:46:14.196Z,9.95
2023-03-29T11:47:14.142Z,9.98
2023-03-29T11:48:14.157Z,9.99
2023-03-29T11:49:14.109Z,9.95
2023-03-29T11:50:14.166Z,9.99
2023-03-29T11:51:14.104Z,9.99
2023-03-29T11:52:14.071Z,9.99
2023-03-29T11:53:14.068Z,10.10
2023-03-29T11:54:14.060Z,10.17
2023-03-29T11:55:14.084Z,10.22
2023-03-29T11:56:14.020Z,10.22
2023-03-29T11:57:14.102Z,10.26
2023-03-29T11:58:14.007Z,10.26
2023-03-29T11:59:14.017Z,10.33
2023-03-29T12:00:14.013Z,10.28
2023-03-29T12:01:13.981Z,10.35
2023-03-29T12:02:14.024Z,10.31
2023-03-29T12:03:14.069Z,10.35
2023-03-29T12:04:13.966Z,10.37
2023-03-29T12:05:13.941Z,10.40
2023-03-29T12:06:13.923Z,10.38
2023-03-29T12:07:13.973Z,10.38
2023-03-29T12:08:13.949Z,10.46
2023-03-29T12:09:16.667Z,10.57
2023-03-29T12:10:13.876Z,10.61
2023-03-29T12:11:13.889Z,10.69
2023-03-29T12:12:13.928Z,10.76
2023-03-29T12:13:13.846Z,10.79
2023-03-29T12:14:13.834Z,10.81
2023-03-29T12:15:13.816Z,10.89
2023-03-29T12:16:13.917Z,10.92
2023-03-29T12:17:13.802Z,10.97
2023-03-29T12:18:13.780Z,11.02
2023-03-29T12:19:13.819Z,11.11
2023-03-29T12:20:13.760Z,11.22
2023-03-29T12:21:13.757Z,11.29
2023-03-29T12:22:13.762Z,11.32
2023-03-29T12:23:13.828Z,11.35
2023-03-29T12:24:13.716Z,11.35
2023-03-29T12:25:14.632Z,11.35
2023-03-29T12:26:13.700Z,11.44
2023-03-29T12:27:13.699Z,11.50
2023-03-29T12:28:13.683Z,11.57
2023-03-29T12:29:13.676Z,11.68
2023-03-29T12:30:13.655Z,11.73
2023-03-29T12:31:13.652Z,11.77
2023-03-29T12:32:13.693Z,11.81
2023-03-29T12:33:15.817Z,11.86
2023-03-29T12:34:14.034Z,11.87
2023-03-29T12:35:13.606Z,11.90
2023-03-29T12:36:13.716Z,11.99
2023-03-29T12:37:13.606Z,11.97
2023-03-29T12:38:13.553Z,11.95
2023-03-29T12:39:13.597Z,12.00
2023-03-29T12:40:13.535Z,12.02
2023-03-29T12:41:13.537Z,12.00
2023-03-29T12:42:13.590Z,12.04
2023-03-29T12:43:13.801Z,12.09
2023-03-29T12:44:13.503Z,12.13
2023-03-29T12:45:13.520Z,12.22
2023-03-29T12:46:13.622Z,12.27
2023-03-29T12:47:13.477Z,12.28
2023-03-29T12:48:13.501Z,12.29
2023-03-29T12:49:13.457Z,12.39
2023-03-29T12:50:13.457Z,12.46
2023-03-29T12:51:13.463Z,12.49
2023-03-29T12:52:13.397Z,12.54
2023-03-29T12:53:13.405Z,12.60
2023-03-29T12:54:13.379Z,12.72
2023-03-29T12:55:13.386Z,12.86
2023-03-29T12:56:13.398Z,12.94
2023-03-29T12:57:13.380Z,13.05
2023-03-29T12:58:13.339Z,13.13
2023-03-29T12:59:13.367Z,13.16
2023-03-29T13:00:13.347Z,13.15
2023-03-29T13:01:13.463Z,13.12
2023-03-29T13:02:13.312Z,13.15
2023-03-29T13:03:13.321Z,13.15
2023-03-29T13:04:13.339Z,13.15
2023-03-29T13:05:13.334Z,13.11
2023-03-29T13:06:13.304Z,13.04
2023-03-29T13:07:14.180Z,13.01
2023-03-29T13:08:13.228Z,12.95
2023-03-29T13:09:13.229Z,12.94
2023-03-29T13:10:13.300Z,12.90
2023-03-29T13:11:13.248Z,12.82
2023-03-29T13:12:13.197Z,12.79
2023-03-29T13:13:13.222Z,12.73